Time;durP1;ratioP1;P1;durP2;ratioP2;P2;SDS_P1;SDS_P2;PMS_P1;PMS_P2;Temp;Humidity;BMP_temperature;BMP_pressure;BME280_temperature;BME280_humidity;BME280_pressure;Samples;Min_cycle;Max_cycle;Signal;HPM_P1;HPM_P2
2023/12/22 00:00:18;;;;;;;8.10;2.27;;;;;;;;;;5035826;28;20421;-79
2023/12/22 00:02:44;;;;;;;3.73;1.90;;;;;;;;;;5035493;28;20452;-81
2023/12/22 00:05:11;;;;;;;12.07;2.73;;;;;;;;;;5035891;28;20571;-79
2023/12/22 00:07:39;;;;;;;10.77;2.30;;;;;;;;;;5035009;28;20441;-79
2023/12/22 00:10:05;;;;;;;7.50;2.20;;;;;;;;;;5035679;28;20524;-79
2023/12/22 00:12:32;;;;;;;7.00;2.60;;;;;;;;;;5035664;28;20441;-79
2023/12/22 00:14:58;;;;;;;10.77;2.77;;;;;;;;;;5035264;28;20483;-79
2023/12/22 00:17:24;;;;;;;21.83;3.23;;;;;;;;;;5035267;28;20443;-79
2023/12/22 00:19:51;;;;;;;9.37;2.97;;;;;;;;;;5034886;28;20544;-79
2023/12/22 00:22:17;;;;;;;15.47;2.90;;;;;;;;;;5035601;28;20441;-80
2023/12/22 00:24:45;;;;;;;9.93;3.00;;;;;;;;;;5034860;28;20480;-79
2023/12/22 00:27:11;;;;;;;5.27;2.63;;;;;;;;;;5035456;28;20930;-79
2023/12/22 00:29:38;;;;;;;9.40;2.60;;;;;;;;;;5034958;28;20469;-79
2023/12/22 00:32:04;;;;;;;13.23;3.40;;;;;;;;;;5035527;28;20447;-80
2023/12/22 00:34:31;;;;;;;4.87;2.30;;;;;;;;;;5034716;28;20987;-79
2023/12/22 00:36:57;;;;;;;7.90;2.47;;;;;;;;;;5035380;28;20536;-79
2023/12/22 00:39:23;;;;;;;12.53;2.43;;;;;;;;;;5035075;28;20479;-79
2023/12/22 00:41:51;;;;;;;9.03;2.67;;;;;;;;;;5035348;28;20440;-79
2023/12/22 00:44:17;;;;;;;5.93;2.07;;;;;;;;;;5034596;28;20476;-79
2023/12/22 00:46:44;;;;;;;13.03;2.70;;;;;;;;;;5035251;28;20863;-79
2023/12/22 00:49:10;;;;;;;9.60;2.07;;;;;;;;;;5034714;28;20484;-79
2023/12/22 00:51:36;;;;;;;17.70;2.83;;;;;;;;;;5035216;28;20433;-80
2023/12/22 00:54:03;;;;;;;10.33;2.77;;;;;;;;;;5034844;28;20560;-79
2023/12/22 00:56:29;;;;;;;6.60;3.50;;;;;;;;;;5035073;28;20447;-81
2023/12/22 00:58:57;;;;;;;12.70;2.70;;;;;;;;;;5034416;28;20473;-81
2023/12/22 01:01:23;;;;;;;4.70;2.13;;;;;;;;;;5034527;28;20451;-80
2023/12/22 01:03:50;;;;;;;6.50;2.77;;;;;;;;;;5033993;28;20843;-80
2023/12/22 01:06:16;;;;;;;12.33;2.90;;;;;;;;;;5034755;28;20511;-81
2023/12/22 01:08:42;;;;;;;10.60;2.87;;;;;;;;;;5034262;28;20560;-80
2023/12/22 01:11:09;;;;;;;6.00;2.77;;;;;;;;;;5033842;28;20935;-78
2023/12/22 01:13:35;;;;;;;7.53;3.10;;;;;;;;;;5034470;28;20561;-79
2023/12/22 01:16:03;;;;;;;10.73;3.63;;;;;;;;;;5034647;28;20475;-80
2023/12/22 01:18:30;;;;;;;7.60;3.67;;;;;;;;;;5034243;28;20484;-80
2023/12/22 01:20:56;;;;;;;11.93;4.20;;;;;;;;;;5034609;28;20449;-79
2023/12/22 01:23:22;;;;;;;13.90;3.80;;;;;;;;;;5034635;28;20476;-80
2023/12/22 01:25:49;;;;;;;7.70;1.87;;;;;;;;;;5034725;28;20488;-79
2023/12/22 01:28:15;;;;;;;9.90;1.90;;;;;;;;;;5034602;28;20469;-80
2023/12/22 01:30:41;;;;;;;8.13;1.63;;;;;;;;;;5034543;28;20448;-79
2023/12/22 01:33:09;;;;;;;8.73;2.40;;;;;;;;;;5034145;28;20467;-79
2023/12/22 01:35:35;;;;;;;7.73;1.40;;;;;;;;;;5034376;28;20457;-79
2023/12/22 01:38:02;;;;;;;5.70;1.40;;;;;;;;;;5034027;28;20473;-80
2023/12/22 01:40:28;;;;;;;9.47;1.77;;;;;;;;;;5034632;28;20445;-79
2023/12/22 01:42:55;;;;;;;5.33;1.60;;;;;;;;;;5033974;28;20459;-80
2023/12/22 01:45:21;;;;;;;4.60;1.67;;;;;;;;;;5034169;28;20492;-78
2023/12/22 01:47:47;;;;;;;1.73;1.13;;;;;;;;;;5034331;28;20433;-80
2023/12/22 01:50:16;;;;;;;8.80;1.70;;;;;;;;;;5034355;28;20441;-80
2023/12/22 01:52:43;;;;;;;10.10;2.20;;;;;;;;;;5033745;28;20813;-80
2023/12/22 01:55:10;;;;;;;7.50;1.17;;;;;;;;;;5033707;28;20971;-79
2023/12/22 01:57:37;;;;;;;7.10;2.47;;;;;;;;;;5033334;28;20436;-79
2023/12/22 02:00:04;;;;;;;7.37;1.83;;;;;;;;;;5034261;28;20440;-79
2023/12/22 02:02:31;;;;;;;9.20;1.83;;;;;;;;;;5034008;28;20523;-80
2023/12/22 02:04:57;;;;;;;9.23;2.37;;;;;;;;;;5033167;28;21052;-79
2023/12/22 02:07:25;;;;;;;9.73;2.17;;;;;;;;;;5034019;28;20439;-79
2023/12/22 02:09:51;;;;;;;7.03;1.47;;;;;;;;;;5033258;28;20472;-80
2023/12/22 02:12:17;;;;;;;8.10;1.60;;;;;;;;;;5033937;28;20440;-80
2023/12/22 02:14:44;;;;;;;8.00;2.40;;;;;;;;;;5033026;28;20552;-80
2023/12/22 02:17:15;;;;;;;9.37;2.77;;;;;;;;;;5034139;28;20206;-79
2023/12/22 02:19:43;;;;;;;17.60;3.13;;;;;;;;;;5033515;28;20468;-79
2023/12/22 02:22:10;;;;;;;11.87;2.43;;;;;;;;;;5032551;28;20445;-79
2023/12/22 02:24:38;;;;;;;12.10;2.00;;;;;;;;;;5033461;28;20849;-79
2023/12/22 02:27:06;;;;;;;7.30;2.20;;;;;;;;;;5033432;28;20954;-79
2023/12/22 02:29:34;;;;;;;6.47;1.73;;;;;;;;;;5033367;28;21051;-79
2023/12/22 02:32:03;;;;;;;5.93;1.40;;;;;;;;;;5033637;28;20444;-79
2023/12/22 02:34:30;;;;;;;7.03;1.47;;;;;;;;;;5033054;28;20564;-80
2023/12/22 02:36:57;;;;;;;4.00;1.40;;;;;;;;;;5033266;28;20930;-80
2023/12/22 02:39:24;;;;;;;7.20;2.07;;;;;;;;;;5033161;28;20476;-80
2023/12/22 02:41:52;;;;;;;6.70;1.67;;;;;;;;;;5033710;28;20444;-82
2023/12/22 02:44:18;;;;;;;8.03;1.80;;;;;;;;;;5032898;28;20578;-79
2023/12/22 02:46:44;;;;;;;8.03;2.10;;;;;;;;;;5033471;28;20441;-81
2023/12/22 02:49:13;;;;;;;8.47;1.77;;;;;;;;;;5032786;28;20472;-79
2023/12/22 02:51:39;;;;;;;7.37;1.90;;;;;;;;;;5033189;28;20441;-79
2023/12/22 02:54:05;;;;;;;6.23;1.87;;;;;;;;;;5032816;28;20990;-79
2023/12/22 02:56:32;;;;;;;6.67;2.27;;;;;;;;;;5033456;28;20443;-79
2023/12/22 02:58:59;;;;;;;12.30;2.70;;;;;;;;;;5032695;28;20469;-79
2023/12/22 03:01:26;;;;;;;5.13;1.80;;;;;;;;;;5033452;28;20866;-79
2023/12/22 03:03:52;;;;;;;10.77;2.03;;;;;;;;;;5032695;28;20563;-79
2023/12/22 03:06:19;;;;;;;10.73;2.43;;;;;;;;;;5033219;28;20476;-79
2023/12/22 03:08:45;;;;;;;13.30;2.77;;;;;;;;;;5032842;28;20555;-79
2023/12/22 03:11:11;;;;;;;11.93;4.10;;;;;;;;;;5033038;28;20444;-79
2023/12/22 03:13:38;;;;;;;23.23;3.23;;;;;;;;;;5032705;28;20494;-79
2023/12/22 03:16:08;;;;;;;10.80;2.33;;;;;;;;;;5032841;28;20462;-79
2023/12/22 03:18:35;;;;;;;17.30;3.07;;;;;;;;;;5032515;28;20475;-79
2023/12/22 03:21:01;;;;;;;9.60;3.50;;;;;;;;;;5032921;28;20439;-79
2023/12/22 03:23:27;;;;;;;7.63;2.07;;;;;;;;;;5032513;28;20474;-78
2023/12/22 03:25:54;;;;;;;4.20;1.70;;;;;;;;;;5033111;28;20495;-79
2023/12/22 03:28:20;;;;;;;3.50;1.40;;;;;;;;;;5032573;28;20467;-79
2023/12/22 03:30:46;;;;;;;12.13;2.03;;;;;;;;;;5033144;28;20964;-79
2023/12/22 03:33:14;;;;;;;10.03;2.37;;;;;;;;;;5033815;28;20472;-79
2023/12/22 03:35:41;;;;;;;6.60;2.10;;;;;;;;;;5036892;28;20460;-79
2023/12/22 03:38:07;;;;;;;10.07;1.90;;;;;;;;;;5036060;28;20464;-79
2023/12/22 03:40:33;;;;;;;9.20;2.40;;;;;;;;;;5036563;28;20445;-79
2023/12/22 03:43:00;;;;;;;15.60;4.80;;;;;;;;;;5036565;28;20869;-79
2023/12/22 03:45:26;;;;;;;12.17;2.17;;;;;;;;;;5036749;28;20492;-79
2023/12/22 03:47:52;;;;;;;6.23;1.70;;;;;;;;;;5036061;28;20444;-79
2023/12/22 03:50:20;;;;;;;10.30;1.80;;;;;;;;;;5036680;28;20441;-79
2023/12/22 03:52:46;;;;;;;12.50;2.70;;;;;;;;;;5036220;28;20437;-79
2023/12/22 03:55:13;;;;;;;6.17;2.00;;;;;;;;;;5036698;28;20560;-79
2023/12/22 03:57:39;;;;;;;7.90;2.10;;;;;;;;;;5035659;28;20440;-79
2023/12/22 04:00:06;;;;;;;11.27;2.20;;;;;;;;;;5036487;28;20421;-79
2023/12/22 04:02:33;;;;;;;6.03;2.50;;;;;;;;;;5036212;28;20453;-79
2023/12/22 04:04:59;;;;;;;6.50;3.00;;;;;;;;;;5035753;28;20571;-79
2023/12/22 04:07:27;;;;;;;6.47;2.80;;;;;;;;;;5036257;28;20441;-79
2023/12/22 04:09:53;;;;;;;14.00;2.40;;;;;;;;;;5036100;28;20872;-79
2023/12/22 04:12:19;;;;;;;12.43;3.30;;;;;;;;;;5036384;28;20471;-79
2023/12/22 04:14:46;;;;;;;12.37;2.33;;;;;;;;;;5035413;28;20473;-79
2023/12/22 04:17:12;;;;;;;10.17;2.43;;;;;;;;;;5035943;28;20441;-78
2023/12/22 04:19:38;;;;;;;4.23;2.57;;;;;;;;;;5035426;28;20472;-79
2023/12/22 04:22:05;;;;;;;11.70;2.20;;;;;;;;;;5035894;28;20437;-79
2023/12/22 04:24:32;;;;;;;13.37;3.17;;;;;;;;;;5035277;28;20520;-79
2023/12/22 04:26:59;;;;;;;9.83;2.67;;;;;;;;;;5035655;28;20440;-79
2023/12/22 04:29:25;;;;;;;21.33;4.20;;;;;;;;;;5035380;28;20473;-79
2023/12/22 04:31:51;;;;;;;5.17;2.00;;;;;;;;;;5035365;28;20436;-79
2023/12/22 04:34:18;;;;;;;7.33;2.50;;;;;;;;;;5035188;28;20480;-79
2023/12/22 04:36:44;;;;;;;11.23;2.60;;;;;;;;;;5035501;28;20440;-79
2023/12/22 04:39:11;;;;;;;16.53;2.87;;;;;;;;;;5035005;28;20480;-79
2023/12/22 04:41:38;;;;;;;13.10;3.30;;;;;;;;;;5035355;28;20445;-78
2023/12/22 04:44:05;;;;;;;10.20;2.83;;;;;;;;;;5034309;28;20986;-78
2023/12/22 04:46:31;;;;;;;12.20;3.00;;;;;;;;;;5034790;28;20554;-79
2023/12/22 04:48:58;;;;;;;8.03;2.83;;;;;;;;;;5034981;28;20465;-79
2023/12/22 04:51:24;;;;;;;16.43;3.40;;;;;;;;;;5034943;28;20935;-79
2023/12/22 04:53:50;;;;;;;13.83;3.43;;;;;;;;;;5034273;28;20834;-79
2023/12/22 04:56:17;;;;;;;15.93;4.23;;;;;;;;;;5035224;28;20437;-79
2023/12/22 04:58:45;;;;;;;17.97;3.43;;;;;;;;;;5034279;28;20475;-79
2023/12/22 05:01:11;;;;;;;11.37;4.63;;;;;;;;;;5034587;28;20441;-79
2023/12/22 05:03:37;;;;;;;27.63;3.73;;;;;;;;;;5034352;28;20526;-78
2023/12/22 05:06:04;;;;;;;6.53;1.87;;;;;;;;;;5034749;28;20488;-81
2023/12/22 05:08:30;;;;;;;8.23;2.00;;;;;;;;;;5034097;28;20465;-79
2023/12/22 05:10:56;;;;;;;7.00;2.13;;;;;;;;;;5034576;28;20939;-80
2023/12/22 05:13:23;;;;;;;9.77;2.30;;;;;;;;;;5034052;28;20476;-80
2023/12/22 05:15:51;;;;;;;13.40;2.17;;;;;;;;;;5034456;28;20540;-79
2023/12/22 05:18:17;;;;;;;11.23;3.70;;;;;;;;;;5034181;28;20468;-80
2023/12/22 05:20:44;;;;;;;11.30;2.53;;;;;;;;;;5034485;28;20441;-79
2023/12/22 05:23:10;;;;;;;15.57;3.63;;;;;;;;;;5033964;28;20555;-80
2023/12/22 05:25:36;;;;;;;5.87;2.53;;;;;;;;;;5034157;28;20579;-80
2023/12/22 05:28:03;;;;;;;10.73;3.77;;;;;;;;;;5033879;28;20475;-80
2023/12/22 05:30:29;;;;;;;11.10;2.00;;;;;;;;;;5034346;28;20531;-79
2023/12/22 05:32:57;;;;;;;10.73;2.60;;;;;;;;;;5033880;28;20460;-80
2023/12/22 05:35:23;;;;;;;9.03;3.20;;;;;;;;;;5033956;28;20843;-80
2023/12/22 05:37:50;;;;;;;13.00;2.73;;;;;;;;;;5033760;28;20443;-80
2023/12/22 05:40:16;;;;;;;16.77;2.90;;;;;;;;;;5034954;28;20441;-80
2023/12/22 05:42:43;;;;;;;10.40;2.47;;;;;;;;;;5034242;28;20436;-80
2023/12/22 05:45:11;;;;;;;10.17;2.30;;;;;;;;;;5033576;28;20495;-80
2023/12/22 05:47:37;;;;;;;10.00;2.90;;;;;;;;;;5033543;28;20495;-80
2023/12/22 05:50:05;;;;;;;5.03;1.97;;;;;;;;;;5035609;28;20441;-80
2023/12/22 05:52:32;;;;;;;16.47;2.50;;;;;;;;;;5033671;28;20443;-80
2023/12/22 05:54:58;;;;;;;14.97;2.80;;;;;;;;;;5033121;28;20535;-80
2023/12/22 05:57:25;;;;;;;7.27;1.93;;;;;;;;;;5033608;28;20981;-80
2023/12/22 05:59:52;;;;;;;8.83;2.87;;;;;;;;;;5033112;28;20476;-80
2023/12/22 06:02:18;;;;;;;8.90;2.20;;;;;;;;;;5033371;28;20984;-80
2023/12/22 06:04:45;;;;;;;7.93;2.43;;;;;;;;;;5033067;28;20483;-80
2023/12/22 06:07:12;;;;;;;7.67;2.50;;;;;;;;;;5033620;28;20486;-80
2023/12/22 06:09:39;;;;;;;7.90;3.17;;;;;;;;;;5033379;28;20469;-80
2023/12/22 06:12:06;;;;;;;7.67;2.30;;;;;;;;;;5033267;28;20977;-80
2023/12/22 06:14:34;;;;;;;2.13;1.20;;;;;;;;;;5032742;28;20998;-79
2023/12/22 06:17:01;;;;;;;6.30;1.43;;;;;;;;;;5033230;28;20445;-80
2023/12/22 06:19:30;;;;;;;4.40;1.20;;;;;;;;;;5032887;28;20483;-80
2023/12/22 06:21:57;;;;;;;6.03;1.30;;;;;;;;;;5033801;28;20800;-80
2023/12/22 06:24:24;;;;;;;8.00;1.87;;;;;;;;;;5032952;28;20472;-80
2023/12/22 06:26:51;;;;;;;7.70;2.20;;;;;;;;;;5033304;28;20575;-80
2023/12/22 06:29:17;;;;;;;6.80;1.60;;;;;;;;;;5032535;28;20998;-80
2023/12/22 06:31:43;;;;;;;6.90;1.83;;;;;;;;;;5033358;28;20441;-80
2023/12/22 06:34:10;;;;;;;10.50;2.20;;;;;;;;;;5033052;28;20477;-80
2023/12/22 06:36:36;;;;;;;8.10;2.30;;;;;;;;;;5033509;28;20515;-80
2023/12/22 06:39:03;;;;;;;12.90;3.10;;;;;;;;;;5032833;28;20893;-80
2023/12/22 06:41:32;;;;;;;10.73;2.50;;;;;;;;;;5032913;28;20927;-80
2023/12/22 06:43:59;;;;;;;7.87;2.70;;;;;;;;;;5032726;28;21040;-80
2023/12/22 06:46:26;;;;;;;11.80;2.70;;;;;;;;;;5033173;28;20483;-80
2023/12/22 06:48:53;;;;;;;13.60;2.50;;;;;;;;;;5033289;28;20475;-80
2023/12/22 06:51:20;;;;;;;17.70;2.50;;;;;;;;;;5033312;28;20531;-80
2023/12/22 06:53:47;;;;;;;14.50;2.37;;;;;;;;;;5030004;28;20465;-80
2023/12/22 06:56:17;;;;;;;8.10;1.77;;;;;;;;;;5033627;28;20817;-80
2023/12/22 06:58:46;;;;;;;9.33;2.93;;;;;;;;;;5032415;28;20574;-80
2023/12/22 07:01:13;;;;;;;9.30;2.37;;;;;;;;;;5033234;28;20531;-80
2023/12/22 07:03:39;;;;;;;9.33;2.03;;;;;;;;;;5032695;28;20475;-80
2023/12/22 07:06:05;;;;;;;12.77;3.20;;;;;;;;;;5032922;28;20495;-80
2023/12/22 07:08:33;;;;;;;17.23;3.67;;;;;;;;;;5034492;28;20473;-80
2023/12/22 07:10:59;;;;;;;9.00;3.10;;;;;;;;;;5036961;28;20502;-80
2023/12/22 07:13:26;;;;;;;17.30;3.63;;;;;;;;;;5036429;28;20472;-80
2023/12/22 07:15:54;;;;;;;13.10;4.20;;;;;;;;;;5036308;28;21042;-80
2023/12/22 07:18:20;;;;;;;16.10;3.60;;;;;;;;;;5036525;28;20469;-80
2023/12/22 07:20:46;;;;;;;20.83;4.60;;;;;;;;;;5036864;28;20440;-80
2023/12/22 07:23:13;;;;;;;21.37;4.77;;;;;;;;;;5036207;28;20472;-80
2023/12/22 07:25:39;;;;;;;14.40;3.60;;;;;;;;;;5036655;28;20495;-80
2023/12/22 07:28:06;;;;;;;15.07;3.83;;;;;;;;;;5035842;28;20472;-80
2023/12/22 07:30:32;;;;;;;16.07;4.37;;;;;;;;;;5036706;28;20447;-80
2023/12/22 07:33:00;;;;;;;22.73;4.67;;;;;;;;;;5036109;28;20472;-80
2023/12/22 07:35:26;;;;;;;24.17;5.37;;;;;;;;;;5036562;28;20482;-80
2023/12/22 07:37:53;;;;;;;16.70;5.20;;;;;;;;;;5036211;28;20474;-81
2023/12/22 07:40:20;;;;;;;29.33;4.63;;;;;;;;;;5036449;28;20444;-81
2023/12/22 07:42:46;;;;;;;32.93;6.73;;;;;;;;;;5036250;28;20468;-81
2023/12/22 07:45:12;;;;;;;22.67;4.97;;;;;;;;;;5036419;28;20464;-81
2023/12/22 07:47:39;;;;;;;39.17;6.50;;;;;;;;;;5035984;28;20482;-82
2023/12/22 07:50:08;;;;;;;27.40;6.10;;;;;;;;;;5036343;28;20439;-82
2023/12/22 07:52:37;;;;;;;17.50;4.93;;;;;;;;;;5036095;28;20457;-81
2023/12/22 07:55:04;;;;;;;22.17;4.93;;;;;;;;;;5036456;28;20469;-81
2023/12/22 07:57:30;;;;;;;30.13;5.83;;;;;;;;;;5035459;28;20950;-81
2023/12/22 07:59:57;;;;;;;22.83;4.47;;;;;;;;;;5036386;28;20499;-82
2023/12/22 08:02:23;;;;;;;19.30;5.50;;;;;;;;;;5037024;28;20447;-82
2023/12/22 08:04:50;;;;;;;25.50;5.53;;;;;;;;;;5035884;28;20461;-81
2023/12/22 08:07:17;;;;;;;27.37;4.80;;;;;;;;;;5035529;28;20483;-81
2023/12/22 08:09:44;;;;;;;21.43;4.53;;;;;;;;;;5035907;28;20781;-82
2023/12/22 08:12:10;;;;;;;22.60;4.50;;;;;;;;;;5036046;28;20447;-82
2023/12/22 08:14:36;;;;;;;17.07;5.27;;;;;;;;;;5035462;28;20469;-82
2023/12/22 08:17:03;;;;;;;12.10;3.50;;;;;;;;;;5036119;28;20441;-81
2023/12/22 08:19:29;;;;;;;13.63;4.07;;;;;;;;;;5033822;28;20473;-81
2023/12/22 08:21:56;;;;;;;18.10;3.93;;;;;;;;;;5035775;28;20480;-81
2023/12/22 08:24:24;;;;;;;21.47;3.53;;;;;;;;;;5035317;28;20515;-81
2023/12/22 08:26:50;;;;;;;13.87;3.83;;;;;;;;;;5035268;28;20481;-81
2023/12/22 08:29:18;;;;;;;12.63;4.70;;;;;;;;;;5034865;28;20845;-81
2023/12/22 08:31:45;;;;;;;15.40;4.27;;;;;;;;;;5035298;28;21030;-81
2023/12/22 08:34:11;;;;;;;17.90;4.27;;;;;;;;;;5035283;28;20468;-82
2023/12/22 08:36:37;;;;;;;22.30;4.20;;;;;;;;;;5035024;28;20526;-81
2023/12/22 08:39:04;;;;;;;16.47;3.93;;;;;;;;;;5034673;28;20468;-81
2023/12/22 08:41:35;;;;;;;16.07;4.60;;;;;;;;;;5035319;28;20451;-81
2023/12/22 08:44:02;;;;;;;18.23;3.80;;;;;;;;;;5034969;28;20472;-81
2023/12/22 08:46:29;;;;;;;21.63;4.47;;;;;;;;;;5035239;28;20476;-81
2023/12/22 08:48:55;;;;;;;13.23;4.17;;;;;;;;;;5034723;28;20473;-82
2023/12/22 08:51:22;;;;;;;18.17;5.50;;;;;;;;;;5034724;28;20489;-81
2023/12/22 08:53:50;;;;;;;21.23;4.80;;;;;;;;;;5034384;28;20845;-82
2023/12/22 08:56:17;;;;;;;28.87;4.80;;;;;;;;;;5034753;28;20452;-82
2023/12/22 08:58:45;;;;;;;16.77;3.53;;;;;;;;;;5034137;28;21006;-82
2023/12/22 09:01:15;;;;;;;8.40;3.07;;;;;;;;;;5035093;28;20480;-81
2023/12/22 09:03:45;;;;;;;9.50;2.90;;;;;;;;;;5034488;28;20568;-81
2023/12/22 09:06:13;;;;;;;3.40;1.70;;;;;;;;;;5035571;28;20469;-80
2023/12/22 09:08:39;;;;;;;5.87;2.30;;;;;;;;;;5034425;28;20468;-80
2023/12/22 09:11:05;;;;;;;7.60;1.47;;;;;;;;;;5034829;28;20935;-79
2023/12/22 09:13:32;;;;;;;2.50;1.60;;;;;;;;;;5034223;28;20483;-82
2023/12/22 09:15:59;;;;;;;5.13;1.40;;;;;;;;;;5034661;28;20465;-80
2023/12/22 09:18:26;;;;;;;19.00;2.50;;;;;;;;;;5034234;28;20468;-81
2023/12/22 09:20:52;;;;;;;2.17;1.40;;;;;;;;;;5034476;28;20444;-81
2023/12/22 09:23:19;;;;;;;8.20;2.20;;;;;;;;;;5034257;28;20473;-80
2023/12/22 09:25:46;;;;;;;10.00;1.93;;;;;;;;;;5034450;28;20469;-80
2023/12/22 09:28:12;;;;;;;5.00;2.30;;;;;;;;;;5033883;28;20465;-80
2023/12/22 09:30:39;;;;;;;8.03;2.00;;;;;;;;;;5033843;28;20878;-80
2023/12/22 09:33:06;;;;;;;7.23;2.00;;;;;;;;;;5033757;28;20556;-80
2023/12/22 09:35:33;;;;;;;6.93;2.20;;;;;;;;;;5034304;28;20475;-80
2023/12/22 09:37:59;;;;;;;15.37;2.90;;;;;;;;;;5033848;28;20468;-80
2023/12/22 09:40:26;;;;;;;11.07;3.37;;;;;;;;;;5034377;28;20436;-80
2023/12/22 09:42:55;;;;;;;10.97;2.73;;;;;;;;;;5033860;28;20563;-79
2023/12/22 09:45:22;;;;;;;14.90;2.70;;;;;;;;;;5033863;28;20453;-80
2023/12/22 09:47:48;;;;;;;14.90;2.50;;;;;;;;;;5033663;28;20469;-80
2023/12/22 09:50:16;;;;;;;14.07;2.60;;;;;;;;;;5034202;28;20441;-80
2023/12/22 09:52:44;;;;;;;10.80;2.83;;;;;;;;;;5034093;28;20491;-80
2023/12/22 09:55:11;;;;;;;7.90;2.50;;;;;;;;;;5034578;28;20464;-80
2023/12/22 09:57:38;;;;;;;13.70;2.40;;;;;;;;;;5034517;28;20548;-80
2023/12/22 10:00:06;;;;;;;11.97;3.17;;;;;;;;;;5034816;28;20608;-81
2023/12/22 10:02:34;;;;;;;11.33;2.53;;;;;;;;;;5033473;28;20445;-82
2023/12/22 10:05:00;;;;;;;7.30;2.10;;;;;;;;;;5033824;28;20463;-82
2023/12/22 10:07:28;;;;;;;11.47;2.40;;;;;;;;;;5033251;28;20484;-82
2023/12/22 10:09:56;;;;;;;6.73;2.10;;;;;;;;;;5033553;28;20437;-81
2023/12/22 10:12:22;;;;;;;8.97;2.03;;;;;;;;;;5034159;28;20499;-82
2023/12/22 10:14:48;;;;;;;6.43;2.57;;;;;;;;;;5034070;28;20460;-80
2023/12/22 10:17:16;;;;;;;10.80;2.27;;;;;;;;;;5033457;28;20520;-81
2023/12/22 10:19:43;;;;;;;8.73;3.10;;;;;;;;;;5033778;28;20448;-80
2023/12/22 10:22:09;;;;;;;7.30;2.50;;;;;;;;;;5034048;28;20443;-81
2023/12/22 10:24:42;;;;;;;7.13;1.83;;;;;;;;;;5033821;28;20499;-81
2023/12/22 10:27:08;;;;;;;11.80;2.60;;;;;;;;;;5034160;28;20812;-80
2023/12/22 10:29:35;;;;;;;9.67;3.60;;;;;;;;;;5033538;28;20468;-80
2023/12/22 10:32:01;;;;;;;8.73;3.07;;;;;;;;;;5033499;28;20449;-80
2023/12/22 10:34:27;;;;;;;16.33;2.80;;;;;;;;;;5033696;28;20551;-81
2023/12/22 10:36:54;;;;;;;8.73;2.90;;;;;;;;;;5033755;28;20441;-80
2023/12/22 10:39:20;;;;;;;11.03;1.93;;;;;;;;;;5033191;28;20556;-80
2023/12/22 10:41:49;;;;;;;11.70;3.73;;;;;;;;;;5034059;28;20436;-81
2023/12/22 10:44:17;;;;;;;8.43;2.40;;;;;;;;;;5036030;28;20477;-80
2023/12/22 10:46:43;;;;;;;10.67;3.20;;;;;;;;;;5037517;28;21017;-80
2023/12/22 10:49:10;;;;;;;12.97;3.03;;;;;;;;;;5037142;28;20483;-82
2023/12/22 10:51:36;;;;;;;10.63;2.40;;;;;;;;;;5037680;28;20464;-82
2023/12/22 10:54:05;;;;;;;10.73;2.53;;;;;;;;;;5037368;28;20552;-82
2023/12/22 10:56:31;;;;;;;7.37;2.10;;;;;;;;;;5037624;28;20814;-82
2023/12/22 10:58:59;;;;;;;14.43;2.70;;;;;;;;;;5037082;28;20559;-82
2023/12/22 11:01:26;;;;;;;7.00;2.60;;;;;;;;;;5037471;28;20491;-83
2023/12/22 11:03:53;;;;;;;5.67;2.40;;;;;;;;;;5036819;28;20475;-82
2023/12/22 11:06:20;;;;;;;13.63;2.87;;;;;;;;;;5036864;28;20519;-83
2023/12/22 11:08:47;;;;;;;7.70;3.10;;;;;;;;;;5036531;28;20487;-82
2023/12/22 11:11:16;;;;;;;7.00;3.40;;;;;;;;;;5037152;28;20440;-81
2023/12/22 11:13:44;;;;;;;7.47;3.80;;;;;;;;;;5036768;28;20499;-82
2023/12/22 11:16:13;;;;;;;10.03;4.07;;;;;;;;;;5036860;28;20433;-82
2023/12/22 11:18:39;;;;;;;16.73;3.80;;;;;;;;;;5036665;28;20472;-81
2023/12/22 11:21:06;;;;;;;16.53;4.77;;;;;;;;;;5037121;28;20440;-80
2023/12/22 11:23:34;;;;;;;13.00;5.83;;;;;;;;;;5036278;28;20479;-80
2023/12/22 11:26:02;;;;;;;12.67;4.80;;;;;;;;;;5036731;28;20510;-80
2023/12/22 11:28:28;;;;;;;17.27;5.47;;;;;;;;;;5036345;28;20483;-80
2023/12/22 11:30:55;;;;;;;21.00;5.83;;;;;;;;;;5036765;28;20886;-80
2023/12/22 11:33:25;;;;;;;16.47;5.10;;;;;;;;;;5036334;28;20547;-81
2023/12/22 11:35:55;;;;;;;10.27;3.47;;;;;;;;;;5036581;28;20474;-81
2023/12/22 11:38:21;;;;;;;12.60;3.67;;;;;;;;;;5036341;28;20863;-81
2023/12/22 11:40:48;;;;;;;17.03;3.50;;;;;;;;;;5036783;28;20523;-81
2023/12/22 11:43:14;;;;;;;10.50;2.50;;;;;;;;;;5035990;28;20482;-80
2023/12/22 11:45:42;;;;;;;8.30;2.20;;;;;;;;;;5036516;28;20475;-80
2023/12/22 11:48:09;;;;;;;11.63;2.63;;;;;;;;;;5036241;28;20819;-81
2023/12/22 11:50:37;;;;;;;17.80;3.20;;;;;;;;;;5036419;28;20462;-82
2023/12/22 11:53:19;;;;;;;8.70;2.80;;;;;;;;;;5035808;28;20476;-81
2023/12/22 11:56:04;;;;;;;10.73;2.13;;;;;;;;;;5036105;28;20551;-80
2023/12/22 11:58:34;;;;;;;5.30;2.27;;;;;;;;;;5035716;28;20560;-82
2023/12/22 12:01:03;;;;;;;8.97;2.20;;;;;;;;;;5036195;28;20537;-82
2023/12/22 12:03:30;;;;;;;4.53;2.20;;;;;;;;;;5035455;28;20477;-81
2023/12/22 12:06:12;;;;;;;7.80;2.60;;;;;;;;;;5035660;28;20460;-82
2023/12/22 12:08:38;;;;;;;14.70;3.23;;;;;;;;;;5035549;28;20481;-82
2023/12/22 12:11:06;;;;;;;9.90;2.30;;;;;;;;;;5035963;28;20437;-82
2023/12/22 12:13:33;;;;;;;12.93;2.23;;;;;;;;;;5035342;28;21010;-81
2023/12/22 12:16:01;;;;;;;11.40;1.87;;;;;;;;;;5035716;28;20453;-82
2023/12/22 12:18:28;;;;;;;9.63;2.60;;;;;;;;;;5035564;28;20820;-82
2023/12/22 12:20:56;;;;;;;11.93;2.97;;;;;;;;;;5037855;28;20435;-82
2023/12/22 12:23:26;;;;;;;11.07;2.03;;;;;;;;;;5035762;28;20519;-82
2023/12/22 12:25:53;;;;;;;8.63;2.67;;;;;;;;;;5035598;28;20461;-81
2023/12/22 12:28:26;;;;;;;10.50;2.50;;;;;;;;;;5035190;28;20899;-82
2023/12/22 12:30:57;;;;;;;5.80;2.93;;;;;;;;;;5035639;28;20421;-81
2023/12/22 12:33:24;;;;;;;14.67;4.03;;;;;;;;;;5035127;28;20911;-82
2023/12/22 12:35:50;;;;;;;11.97;2.33;;;;;;;;;;5035449;28;20547;-81
2023/12/22 12:38:18;;;;;;;9.60;4.00;;;;;;;;;;5034781;28;21070;-81
2023/12/22 12:40:46;;;;;;;11.17;2.20;;;;;;;;;;5035379;28;20480;-82
2023/12/22 12:43:13;;;;;;;10.03;2.97;;;;;;;;;;5034706;28;20552;-82
2023/12/22 12:45:41;;;;;;;9.50;2.50;;;;;;;;;;5035296;28;20543;-81
2023/12/22 12:48:08;;;;;;;8.10;2.80;;;;;;;;;;5034678;28;20896;-81
2023/12/22 12:50:36;;;;;;;10.43;3.60;;;;;;;;;;5035172;28;20539;-81
2023/12/22 12:53:02;;;;;;;23.50;3.60;;;;;;;;;;5034710;28;20477;-82
2023/12/22 12:55:29;;;;;;;9.80;2.70;;;;;;;;;;5035151;28;20548;-81
2023/12/22 12:57:57;;;;;;;10.27;2.50;;;;;;;;;;5034221;28;20567;-81
2023/12/22 13:00:26;;;;;;;11.40;2.00;;;;;;;;;;5035001;28;20520;-81
2023/12/22 13:02:55;;;;;;;10.97;2.57;;;;;;;;;;5034412;28;20552;-81
2023/12/22 13:05:22;;;;;;;6.17;2.47;;;;;;;;;;5033998;28;20457;-81
2023/12/22 13:07:48;;;;;;;9.50;2.40;;;;;;;;;;5034257;28;20477;-81
2023/12/22 13:10:21;;;;;;;8.07;3.13;;;;;;;;;;5034803;28;20520;-81
2023/12/22 13:12:48;;;;;;;7.63;2.57;;;;;;;;;;5034347;28;20476;-82
2023/12/22 13:15:17;;;;;;;9.20;2.60;;;;;;;;;;5034849;28;20457;-81
2023/12/22 13:17:44;;;;;;;8.07;2.97;;;;;;;;;;5034310;28;20553;-81
2023/12/22 13:20:11;;;;;;;7.73;2.43;;;;;;;;;;5034844;28;20528;-81
2023/12/22 13:22:38;;;;;;;9.57;2.83;;;;;;;;;;5034216;28;20973;-81
2023/12/22 13:25:05;;;;;;;8.03;3.83;;;;;;;;;;5033067;28;20456;-81
2023/12/22 13:27:31;;;;;;;7.30;2.33;;;;;;;;;;5033919;28;20865;-82
2023/12/22 13:29:57;;;;;;;11.83;3.47;;;;;;;;;;5034546;28;20885;-81
2023/12/22 13:32:26;;;;;;;5.93;2.20;;;;;;;;;;5033701;28;20513;-81
2023/12/22 13:34:53;;;;;;;9.80;2.73;;;;;;;;;;5034496;28;20461;-81
2023/12/22 13:37:20;;;;;;;10.43;2.30;;;;;;;;;;5033963;28;20475;-81
2023/12/22 13:39:46;;;;;;;11.30;2.53;;;;;;;;;;5034217;28;20468;-81
2023/12/22 13:42:17;;;;;;;15.77;4.70;;;;;;;;;;5033971;28;20886;-81
2023/12/22 13:44:44;;;;;;;7.30;1.50;;;;;;;;;;5033582;28;20970;-81
2023/12/22 13:47:11;;;;;;;5.90;2.10;;;;;;;;;;5034132;28;21038;-81
2023/12/22 13:49:39;;;;;;;8.50;1.97;;;;;;;;;;5033978;28;20476;-81
2023/12/22 13:52:07;;;;;;;7.87;3.03;;;;;;;;;;5034070;28;20524;-81
2023/12/22 13:54:34;;;;;;;5.90;2.40;;;;;;;;;;5033706;28;20503;-81
2023/12/22 13:57:01;;;;;;;8.63;1.90;;;;;;;;;;5034049;28;20436;-81
2023/12/22 13:59:31;;;;;;;7.87;2.40;;;;;;;;;;5033174;28;20878;-81
2023/12/22 14:01:58;;;;;;;9.00;2.83;;;;;;;;;;5033650;28;20803;-81
2023/12/22 14:04:24;;;;;;;7.03;1.80;;;;;;;;;;5033050;28;20572;-82
2023/12/22 14:06:53;;;;;;;2.87;1.40;;;;;;;;;;5034071;28;20440;-81
2023/12/22 14:09:24;;;;;;;2.70;1.27;;;;;;;;;;5033125;28;21078;-82
2023/12/22 14:11:50;;;;;;;10.13;2.63;;;;;;;;;;5033761;28;20431;-81
2023/12/22 14:14:17;;;;;;;11.93;1.93;;;;;;;;;;5033063;28;20560;-81
2023/12/22 14:16:43;;;;;;;7.30;1.87;;;;;;;;;;5033501;28;20799;-81
2023/12/22 14:19:10;;;;;;;10.83;1.97;;;;;;;;;;5033274;28;20489;-81
2023/12/22 14:21:36;;;;;;;8.17;1.70;;;;;;;;;;5033408;28;20519;-81
2023/12/22 14:24:04;;;;;;;4.37;2.23;;;;;;;;;;5032823;28;21035;-81
2023/12/22 14:26:30;;;;;;;8.70;1.70;;;;;;;;;;5033515;28;20519;-80
2023/12/22 14:28:57;;;;;;;6.60;1.70;;;;;;;;;;5032839;28;20568;-81
2023/12/22 14:31:23;;;;;;;8.37;1.87;;;;;;;;;;5033555;28;20532;-81
2023/12/22 14:33:49;;;;;;;9.77;2.97;;;;;;;;;;5033006;28;20496;-81